Time;durP1;ratioP1;P1;durP2;ratioP2;P2;SDS_P1;SDS_P2;PMS_P1;PMS_P2;Temp;Humidity;BMP_temperature;BMP_pressure;BME280_temperature;BME280_humidity;BME280_pressure;Samples;Min_cycle;Max_cycle;Signal;HPM_P1;HPM_P2
2023/11/05 00:01:43;;;;;;;12.68;2.17;;;;;;;8.30;100.00;97016.72;5087091;28;20048;-47
2023/11/05 00:04:11;;;;;;;14.63;2.58;;;;;;;8.32;100.00;97011.31;5088938;28;20052;-46
2023/11/05 00:06:39;;;;;;;9.57;1.83;;;;;;;8.31;100.00;97014.94;5089199;28;20139;-48
2023/11/05 00:09:08;;;;;;;12.85;2.65;;;;;;;8.29;100.00;97015.94;5085043;28;20072;-47
2023/11/05 00:11:36;;;;;;;11.65;2.50;;;;;;;8.24;100.00;97020.88;5085946;28;20109;-48
2023/11/05 00:14:06;;;;;;;13.35;2.05;;;;;;;8.27;100.00;97011.88;5085618;28;20047;-48
2023/11/05 00:16:34;;;;;;;14.85;2.42;;;;;;;8.24;100.00;97009.59;5086930;28;20499;-47
2023/11/05 00:19:02;;;;;;;11.77;2.00;;;;;;;8.28;100.00;97011.69;5088681;28;20123;-49
2023/11/05 00:21:31;;;;;;;12.77;2.47;;;;;;;8.26;100.00;97007.63;5088591;28;20036;-48
2023/11/05 00:23:59;;;;;;;15.55;2.47;;;;;;;8.29;100.00;97004.66;5084441;28;20053;-49
2023/11/05 00:26:27;;;;;;;14.85;2.35;;;;;;;8.29;100.00;97007.28;5085196;28;20129;-46
2023/11/05 00:28:55;;;;;;;11.95;2.20;;;;;;;8.27;100.00;97010.03;5087701;28;20111;-50
2023/11/05 00:31:25;;;;;;;10.05;2.30;;;;;;;8.28;100.00;96990.75;5085103;28;20058;-49
2023/11/05 00:33:53;;;;;;;9.43;2.03;;;;;;;8.29;100.00;96994.19;5086930;28;20052;-47
2023/11/05 00:36:21;;;;;;;14.80;2.10;;;;;;;8.34;100.00;96988.41;5088364;28;20124;-51
2023/11/05 00:38:50;;;;;;;17.10;2.88;;;;;;;8.40;100.00;96991.13;5086194;28;20063;-48
2023/11/05 00:41:18;;;;;;;10.63;1.98;;;;;;;8.41;100.00;96979.66;5084472;28;20087;-46
2023/11/05 00:43:46;;;;;;;13.00;2.63;;;;;;;8.41;100.00;96979.66;5084836;28;20044;-46
2023/11/05 00:46:15;;;;;;;9.38;2.47;;;;;;;8.44;100.00;96981.09;5084513;28;20167;-46
2023/11/05 00:48:44;;;;;;;12.52;2.40;;;;;;;8.43;100.00;96987.31;5085593;28;20040;-51
2023/11/05 00:51:14;;;;;;;10.75;2.85;;;;;;;8.44;100.00;96976.66;5073966;28;20048;-52
2023/11/05 00:53:43;;;;;;;14.30;3.00;;;;;;;8.42;100.00;96976.03;5070571;28;20127;-53
2023/11/05 00:56:11;;;;;;;14.27;3.30;;;;;;;8.37;100.00;96969.72;5070345;28;20518;-52
2023/11/05 00:58:39;;;;;;;12.68;2.80;;;;;;;8.37;100.00;96975.78;5071511;28;20048;-53
2023/11/05 01:01:07;;;;;;;16.48;2.60;;;;;;;8.36;100.00;96965.47;5073747;28;20052;-54
2023/11/05 01:03:35;;;;;;;15.82;2.50;;;;;;;8.39;100.00;96970.34;5071424;28;20049;-55
2023/11/05 01:06:08;;;;;;;11.85;2.25;;;;;;;8.38;100.00;96971.34;5070952;28;20079;-53
2023/11/05 01:08:36;;;;;;;10.57;1.88;;;;;;;8.36;100.00;96965.47;5071180;28;20053;-53
2023/11/05 01:11:05;;;;;;;14.68;2.60;;;;;;;8.33;100.00;96973.69;5070470;28;20052;-54
2023/11/05 01:13:33;;;;;;;13.63;2.88;;;;;;;8.32;100.00;96970.25;5071481;28;20048;-51
2023/11/05 01:16:01;;;;;;;13.20;3.03;;;;;;;8.35;100.00;96969.88;5071262;28;20048;-50
2023/11/05 01:18:29;;;;;;;11.90;2.40;;;;;;;8.38;100.00;96966.09;5070572;28;20048;-52
2023/11/05 01:20:57;;;;;;;10.55;2.28;;;;;;;8.42;100.00;96962.13;5074053;28;20052;-53
2023/11/05 01:23:29;;;;;;;12.70;2.53;;;;;;;8.47;100.00;96957.19;5072241;28;20109;-54
2023/11/05 01:25:57;;;;;;;16.70;2.40;;;;;;;8.51;100.00;96955.84;5070034;28;20084;-54
2023/11/05 01:28:26;;;;;;;9.57;1.80;;;;;;;8.51;100.00;96953.22;5070310;28;20511;-54
2023/11/05 01:30:54;;;;;;;11.77;2.22;;;;;;;8.48;100.00;96961.44;5069624;28;20053;-54
2023/11/05 01:33:22;;;;;;;9.75;2.13;;;;;;;8.46;100.00;96945.91;5068757;28;20094;-52
2023/11/05 01:35:50;;;;;;;12.55;1.75;;;;;;;8.51;100.00;96947.16;5069269;28;20066;-51
2023/11/05 01:38:18;;;;;;;10.63;1.77;;;;;;;8.48;100.00;96942.28;5069765;28;20155;-55
2023/11/05 01:40:48;;;;;;;8.45;2.20;;;;;;;8.46;100.00;96945.09;5069302;28;20054;-52
2023/11/05 01:43:16;;;;;;;10.45;2.33;;;;;;;8.51;100.00;96934.91;5069639;28;20058;-54
2023/11/05 01:45:44;;;;;;;15.32;2.42;;;;;;;8.51;100.00;96941.91;5070427;28;20056;-53
2023/11/05 01:48:12;;;;;;;11.48;1.98;;;;;;;8.52;100.00;96931.28;5070626;28;20101;-53
2023/11/05 01:50:41;;;;;;;10.80;1.98;;;;;;;8.51;100.00;96929.66;5072031;28;20526;-52
2023/11/05 01:53:09;;;;;;;11.63;2.15;;;;;;;8.56;100.00;96929.94;5069922;28;20051;-53
2023/11/05 01:55:40;;;;;;;10.52;1.88;;;;;;;8.56;100.00;96918.63;5069175;28;20048;-52
2023/11/05 01:58:25;;;;;;;11.93;1.92;;;;;;;8.56;100.00;96922.06;5070431;28;20052;-52
2023/11/05 02:00:56;;;;;;;11.48;1.77;;;;;;;8.55;100.00;96917.81;5072280;28;20124;-50
2023/11/05 02:03:24;;;;;;;9.75;2.15;;;;;;;8.59;100.00;96915.66;5070877;28;20666;-52
2023/11/05 02:05:55;;;;;;;11.93;2.25;;;;;;;8.55;100.00;96915.19;5070288;28;20048;-53
2023/11/05 02:08:26;;;;;;;13.23;2.35;;;;;;;8.56;100.00;96914.22;5072728;28;20396;-52
2023/11/05 02:10:54;;;;;;;10.88;1.52;;;;;;;8.66;100.00;96913.94;5072230;28;20041;-53
2023/11/05 02:13:23;;;;;;;7.40;1.63;;;;;;;8.62;100.00;96903.00;5069484;28;20053;-52
2023/11/05 02:15:52;;;;;;;10.15;1.90;;;;;;;8.59;100.00;96911.22;5071694;28;20044;-53
2023/11/05 02:18:21;;;;;;;12.80;2.10;;;;;;;8.57;100.00;96899.31;5072763;28;20570;-54
2023/11/05 02:20:49;;;;;;;8.60;1.70;;;;;;;8.57;100.00;96910.56;5069809;28;20075;-53
2023/11/05 02:23:19;;;;;;;9.70;2.00;;;;;;;8.53;100.00;96904.09;5070158;28;20098;-53
2023/11/05 02:25:47;;;;;;;9.65;2.00;;;;;;;8.62;100.00;96900.38;5072630;28;20048;-53
2023/11/05 02:28:15;;;;;;;9.85;1.80;;;;;;;8.60;100.00;96891.91;5072450;28;20053;-54
2023/11/05 02:30:43;;;;;;;10.85;2.10;;;;;;;8.57;100.00;96891.44;5070019;28;20127;-53
2023/11/05 02:33:11;;;;;;;10.25;1.88;;;;;;;8.59;100.00;96890.28;5067496;28;20049;-54
2023/11/05 02:35:39;;;;;;;12.38;2.22;;;;;;;8.60;100.00;96897.13;5069431;28;20520;-53
2023/11/05 02:38:07;;;;;;;9.00;1.67;;;;;;;8.58;100.00;96896.50;5071080;28;20534;-54
2023/11/05 02:40:37;;;;;;;12.65;1.77;;;;;;;8.60;100.00;96897.13;5068433;28;20047;-54
2023/11/05 02:43:05;;;;;;;9.68;2.05;;;;;;;8.56;100.00;96898.50;5069177;28;20162;-54
2023/11/05 02:45:33;;;;;;;9.75;2.30;;;;;;;8.57;100.00;96884.38;5068141;28;20080;-54
2023/11/05 02:48:05;;;;;;;9.57;1.92;;;;;;;8.57;100.00;96886.22;5072054;28;20044;-54
2023/11/05 02:50:34;;;;;;;11.50;1.80;;;;;;;8.57;100.00;96888.81;5072422;28;20460;-53
2023/11/05 02:53:02;;;;;;;9.45;1.90;;;;;;;8.60;100.00;96878.81;5072217;28;20037;-54
2023/11/05 02:55:30;;;;;;;9.50;1.52;;;;;;;8.56;100.00;96880.16;5072221;28;20074;-53
2023/11/05 02:57:59;;;;;;;11.32;1.70;;;;;;;8.56;100.00;96881.97;5069687;28;20216;-54
2023/11/05 03:00:28;;;;;;;8.93;1.67;;;;;;;8.56;100.00;96881.97;5068676;28;20639;-54
2023/11/05 03:02:57;;;;;;;7.95;1.55;;;;;;;8.55;100.00;96889.00;5071603;28;20407;-53
2023/11/05 03:05:27;;;;;;;7.35;1.70;;;;;;;8.53;100.00;96880.50;5068661;28;20052;-52
2023/11/05 03:07:57;;;;;;;11.88;1.80;;;;;;;8.52;100.00;96881.53;5069184;28;20131;-51
2023/11/05 03:10:25;;;;;;;5.80;1.20;;;;;;;8.53;100.00;96880.50;5070179;28;20127;-54
2023/11/05 03:12:54;;;;;;;13.05;1.75;;;;;;;8.55;100.00;96870.69;5068705;28;20048;-54
2023/11/05 03:15:23;;;;;;;7.82;1.70;;;;;;;8.53;100.00;96869.25;5068682;28;20534;-53
2023/11/05 03:17:51;;;;;;;9.57;1.50;;;;;;;8.56;100.00;96864.47;5069533;28;20058;-53
2023/11/05 03:20:20;;;;;;;8.65;2.00;;;;;;;8.56;100.00;96871.47;5070300;28;20500;-55
2023/11/05 03:22:48;;;;;;;9.85;1.60;;;;;;;8.53;100.00;96866.63;5069049;28;20052;-52
2023/11/05 03:25:16;;;;;;;8.38;1.40;;;;;;;8.57;100.00;96868.69;5067078;28;20048;-51
2023/11/05 03:27:44;;;;;;;7.32;1.70;;;;;;;8.56;100.00;96859.22;5068689;28;20044;-53
2023/11/05 03:30:13;;;;;;;8.65;1.55;;;;;;;8.52;100.00;96852.72;5071717;28;20553;-53
2023/11/05 03:32:43;;;;;;;7.40;1.30;;;;;;;8.53;100.00;96862.19;5070147;28;20131;-53
2023/11/05 03:35:11;;;;;;;7.38;1.10;;;;;;;8.52;100.00;96865.00;5068069;28;20063;-54
2023/11/05 03:37:41;;;;;;;6.20;1.38;;;;;;;8.53;100.00;96870.03;5068394;28;20110;-51
2023/11/05 03:40:11;;;;;;;9.73;1.98;;;;;;;8.55;100.00;96868.06;5071495;28;20040;-54
2023/11/05 03:42:39;;;;;;;6.70;1.50;;;;;;;8.54;100.00;96873.50;5070287;28;20060;-52
2023/11/05 03:45:07;;;;;;;7.32;1.35;;;;;;;8.55;100.00;96870.69;5066905;28;20484;-55
2023/11/05 03:47:35;;;;;;;7.85;1.48;;;;;;;8.52;100.00;96865.81;5070113;28;20502;-54
2023/11/05 03:50:06;;;;;;;7.78;1.23;;;;;;;8.54;100.00;96883.97;5071509;28;20051;-54
2023/11/05 03:52:35;;;;;;;7.72;1.10;;;;;;;8.54;100.00;96868.25;5071633;28;20120;-53
2023/11/05 03:55:03;;;;;;;5.80;1.08;;;;;;;8.59;100.00;96882.41;5070844;28;20123;-52
2023/11/05 03:57:31;;;;;;;5.63;1.10;;;;;;;8.57;100.00;96873.91;5068367;28;20091;-53
2023/11/05 03:59:59;;;;;;;3.33;0.90;;;;;;;8.64;100.00;96871.38;5067206;28;20072;-53
2023/11/05 04:02:27;;;;;;;5.68;0.90;;;;;;;8.60;100.00;96876.19;5070515;28;20040;-55
2023/11/05 04:04:55;;;;;;;5.95;1.30;;;;;;;8.61;100.00;96874.38;5068591;28;20045;-54
2023/11/05 04:07:25;;;;;;;4.28;1.33;;;;;;;8.60;100.00;96867.50;5067790;28;20083;-53
2023/11/05 04:09:53;;;;;;;4.10;1.00;;;;;;;8.59;100.00;96865.91;5067133;28;20074;-53
2023/11/05 04:12:22;;;;;;;8.23;1.80;;;;;;;8.63;100.00;96873.19;5067849;28;20102;-55
2023/11/05 04:14:50;;;;;;;3.78;1.55;;;;;;;8.57;100.00;96871.28;5068009;28;20060;-53
2023/11/05 04:17:18;;;;;;;7.28;1.63;;;;;;;8.58;100.00;96865.06;5067444;28;20083;-54
2023/11/05 04:19:46;;;;;;;7.03;1.80;;;;;;;8.59;100.00;96865.91;5068084;28;20040;-53
2023/11/05 04:22:15;;;;;;;5.28;1.75;;;;;;;8.55;100.00;96865.44;5067798;28;20392;-54
2023/11/05 04:24:44;;;;;;;6.57;1.98;;;;;;;8.57;100.00;96860.03;5067567;28;20049;-49
2023/11/05 04:27:12;;;;;;;6.30;1.80;;;;;;;8.55;100.00;96859.38;5070311;28;20071;-54
2023/11/05 04:29:41;;;;;;;3.95;1.30;;;;;;;8.58;100.00;96859.84;5072192;28;20402;-51
2023/11/05 04:32:10;;;;;;;5.90;1.60;;;;;;;8.60;100.00;96863.09;5074756;28;20049;-53
2023/11/05 04:34:38;;;;;;;9.10;1.50;;;;;;;8.55;100.00;96860.22;5073741;28;20052;-51
2023/11/05 04:37:06;;;;;;;5.60;1.23;;;;;;;8.59;100.00;96863.28;5071172;28;20133;-52
2023/11/05 04:39:34;;;;;;;4.18;1.35;;;;;;;8.60;100.00;96863.09;5070492;28;20099;-52
2023/11/05 04:42:06;;;;;;;3.92;1.00;;;;;;;8.62;100.00;96861.09;5073896;28;20097;-53
2023/11/05 04:44:36;;;;;;;3.72;1.10;;;;;;;8.61;100.00;96861.28;5071914;28;20076;-53
2023/11/05 04:47:05;;;;;;;3.67;1.10;;;;;;;8.63;100.00;96864.53;5071645;28;20044;-54
2023/11/05 04:49:33;;;;;;;5.45;1.20;;;;;;;8.63;100.00;96861.91;5071761;28;20389;-52
2023/11/05 04:52:02;;;;;;;6.72;1.30;;;;;;;8.62;100.00;96866.31;5073087;28;20040;-54
2023/11/05 04:54:30;;;;;;;5.10;1.40;;;;;;;8.63;100.00;96862.72;5074524;28;20075;-53
2023/11/05 04:57:01;;;;;;;6.32;1.40;;;;;;;8.63;100.00;96870.56;5074459;28;20047;-54
2023/11/05 04:59:34;;;;;;;5.57;1.60;;;;;;;8.68;100.00;96863.97;5074517;28;20483;-53
2023/11/05 05:02:02;;;;;;;5.05;1.65;;;;;;;8.66;100.00;96877.25;5074020;28;20087;-53
2023/11/05 05:04:30;;;;;;;5.20;1.60;;;;;;;8.65;100.00;96873.00;5071626;28;20044;-54
2023/11/05 05:06:59;;;;;;;5.63;1.80;;;;;;;8.62;100.00;96866.31;5070266;28;20131;-53
2023/11/05 05:09:30;;;;;;;9.60;2.00;;;;;;;8.63;100.00;96870.56;5072409;28;20084;-51
2023/11/05 05:11:58;;;;;;;9.77;2.13;;;;;;;8.63;100.00;96873.19;5073825;28;20496;-53
2023/11/05 05:14:26;;;;;;;5.97;2.00;;;;;;;8.65;100.00;96882.69;5070850;28;20769;-53
2023/11/05 05:16:56;;;;;;;5.03;1.75;;;;;;;8.65;100.00;96880.84;5071377;28;20040;-53
2023/11/05 05:19:24;;;;;;;5.82;1.77;;;;;;;8.67;100.00;96883.28;5070679;28;20048;-54
2023/11/05 05:21:52;;;;;;;5.88;1.60;;;;;;;8.66;100.00;96881.66;5070945;28;20064;-54
2023/11/05 05:24:20;;;;;;;6.00;1.52;;;;;;;8.70;100.00;96885.53;5073638;28;20045;-51
2023/11/05 05:26:48;;;;;;;4.85;1.50;;;;;;;8.69;100.00;96886.56;5072937;28;20452;-51
2023/11/05 05:29:19;;;;;;;4.05;1.60;;;;;;;8.73;100.00;96879.94;5070229;28;20044;-53
2023/11/05 05:31:48;;;;;;;5.55;1.63;;;;;;;8.75;100.00;96883.19;5072860;28;20132;-52
2023/11/05 05:34:20;;;;;;;8.27;1.83;;;;;;;8.82;100.00;96881.47;5073885;28;20369;-53
2023/11/05 05:36:48;;;;;;;4.90;1.60;;;;;;;8.83;100.00;96890.94;5073704;28;20124;-53
2023/11/05 05:39:17;;;;;;;8.50;1.83;;;;;;;8.81;100.00;96885.06;5071120;28;20059;-52
2023/11/05 05:41:45;;;;;;;6.43;1.50;;;;;;;8.82;100.00;96886.72;5069786;28;20048;-52
2023/11/05 05:44:14;;;;;;;7.57;1.80;;;;;;;8.83;100.00;96892.75;5070177;28;20044;-51
2023/11/05 05:46:42;;;;;;;5.90;1.90;;;;;;;8.83;100.00;96888.31;5070808;28;20040;-53
2023/11/05 05:49:11;;;;;;;6.72;1.50;;;;;;;8.83;100.00;96895.38;5070053;28;20052;-53
2023/11/05 05:51:40;;;;;;;6.50;1.70;;;;;;;8.83;100.00;96895.38;5071019;28;20609;-53
2023/11/05 05:54:08;;;;;;;8.20;1.70;;;;;;;8.83;100.00;96896.16;5068761;28;20079;-53
2023/11/05 05:56:37;;;;;;;5.07;1.50;;;;;;;8.81;100.00;96900.78;5070827;28;20101;-55
2023/11/05 05:59:05;;;;;;;7.47;1.50;;;;;;;8.86;100.00;96903.69;5069987;28;20157;-53
2023/11/05 06:01:33;;;;;;;7.55;2.05;;;;;;;8.86;100.00;96901.06;5070442;28;20060;-54
2023/11/05 06:04:02;;;;;;;6.55;1.60;;;;;;;8.84;100.00;96905.66;5070048;28;20059;-54
2023/11/05 06:06:30;;;;;;;9.95;1.55;;;;;;;8.86;100.00;96902.84;5068798;28;20044;-52
2023/11/05 06:09:03;;;;;;;7.25;1.50;;;;;;;8.86;100.00;96901.06;5068774;28;20048;-53
2023/11/05 06:11:34;;;;;;;7.00;1.75;;;;;;;8.84;100.00;96903.03;5070457;28;20476;-53
2023/11/05 06:14:02;;;;;;;7.13;1.60;;;;;;;8.90;100.00;96910.16;5069849;28;20754;-54
2023/11/05 06:16:31;;;;;;;6.78;1.65;;;;;;;8.93;100.00;96912.41;5069931;28;20476;-54
2023/11/05 06:18:59;;;;;;;6.18;1.50;;;;;;;8.93;100.00;96909.78;5069853;28;20051;-54
2023/11/05 06:21:27;;;;;;;6.00;1.40;;;;;;;8.94;100.00;96913.22;5068936;28;20132;-51
2023/11/05 06:23:55;;;;;;;6.95;1.70;;;;;;;8.93;100.00;96917.66;5068392;28;20052;-52
2023/11/05 06:26:27;;;;;;;7.38;1.85;;;;;;;8.94;100.00;96914.03;5069366;28;20072;-53
2023/11/05 06:28:55;;;;;;;6.47;1.88;;;;;;;8.92;100.00;96918.63;5069712;28;20047;-53
2023/11/05 06:31:24;;;;;;;7.18;1.63;;;;;;;8.93;100.00;96917.66;5069428;28;20045;-53
2023/11/05 06:33:52;;;;;;;4.65;1.70;;;;;;;8.96;100.00;96919.91;5069651;28;20045;-52
2023/11/05 06:36:20;;;;;;;7.88;1.70;;;;;;;8.98;100.00;96929.38;5069114;28;20438;-53
2023/11/05 06:38:48;;;;;;;7.57;1.75;;;;;;;8.94;100.00;96935.00;5068495;28;20168;-53
2023/11/05 06:41:16;;;;;;;10.98;2.35;;;;;;;9.00;100.00;96937.84;5069012;28;20044;-54
2023/11/05 06:43:45;;;;;;;6.28;1.60;;;;;;;8.98;100.00;96939.88;5069405;28;20098;-53
2023/11/05 06:46:13;;;;;;;8.27;2.30;;;;;;;8.99;100.00;96947.53;5067893;28;20152;-53
2023/11/05 06:48:42;;;;;;;8.13;1.95;;;;;;;9.02;100.00;96947.16;5068656;28;20514;-53
2023/11/05 06:51:10;;;;;;;8.20;1.90;;;;;;;9.05;100.00;96948.59;5069392;28;20048;-53
2023/11/05 06:53:38;;;;;;;8.30;2.03;;;;;;;9.04;100.00;96953.06;5068850;28;20773;-53
2023/11/05 06:56:07;;;;;;;8.02;2.22;;;;;;;9.08;100.00;96953.47;5068292;28;20580;-52
2023/11/05 06:58:35;;;;;;;12.32;2.38;;;;;;;9.04;100.00;96962.69;5069818;28;20102;-52
2023/11/05 07:01:05;;;;;;;4.57;1.83;;;;;;;9.06;100.00;96960.72;5069250;28;20106;-52
2023/11/05 07:03:34;;;;;;;8.10;2.25;;;;;;;9.12;100.00;96959.97;5069244;28;20064;-52
2023/11/05 07:06:02;;;;;;;7.80;1.98;;;;;;;9.12;100.00;96966.03;5069438;28;20040;-50
2023/11/05 07:08:31;;;;;;;8.70;2.28;;;;;;;9.09;100.00;96970.84;5068949;28;20044;-54
2023/11/05 07:10:59;;;;;;;5.57;2.03;;;;;;;9.13;100.00;96966.84;5068340;28;20496;-52
2023/11/05 07:13:30;;;;;;;7.82;2.28;;;;;;;9.13;100.00;96977.31;5069122;28;20809;-52
2023/11/05 07:15:58;;;;;;;6.75;2.17;;;;;;;9.16;100.00;96976.16;5101709;28;20055;-52
2023/11/05 07:18:27;;;;;;;4.45;2.08;;;;;;;9.15;100.00;96980.59;5068285;28;20110;-54
2023/11/05 07:20:56;;;;;;;6.32;1.83;;;;;;;9.14;100.00;96979.75;5069126;28;20120;-53
2023/11/05 07:23:24;;;;;;;5.28;1.88;;;;;;;9.19;100.00;96987.09;5068509;28;20466;-54
2023/11/05 07:25:52;;;;;;;5.20;1.80;;;;;;;9.23;100.00;96990.13;5067899;28;20143;-51
2023/11/05 07:28:22;;;;;;;7.57;2.22;;;;;;;9.26;100.00;96989.78;5068644;28;20048;-53
2023/11/05 07:30:51;;;;;;;9.65;2.17;;;;;;;9.29;100.00;96998.06;5068878;28;20495;-52
2023/11/05 07:33:21;;;;;;;7.63;2.30;;;;;;;9.32;100.00;97006.59;5067922;28;20068;-54
2023/11/05 07:35:50;;;;;;;6.40;2.40;;;;;;;9.30;100.00;97004.94;5067614;28;20080;-60
2023/11/05 07:38:18;;;;;;;8.20;2.30;;;;;;;9.32;100.00;97010.00;5068155;28;20049;-53
2023/11/05 07:40:46;;;;;;;7.50;2.28;;;;;;;9.36;100.00;97007.84;5067012;28;20052;-53
2023/11/05 07:43:15;;;;;;;8.23;2.50;;;;;;;9.35;100.00;97019.31;5068114;28;20403;-53
2023/11/05 07:45:43;;;;;;;6.60;2.17;;;;;;;9.38;100.00;97026.81;5068673;28;20044;-52
2023/11/05 07:48:11;;;;;;;10.15;2.40;;;;;;;9.43;100.00;97032.31;5068214;28;20044;-53
2023/11/05 07:50:39;;;;;;;7.43;2.20;;;;;;;9.43;100.00;97019.19;5068772;28;20785;-53
2023/11/05 07:53:09;;;;;;;9.40;2.60;;;;;;;9.45;100.00;97027.69;5068542;28;20381;-52
2023/11/05 07:55:37;;;;;;;7.82;2.70;;;;;;;9.45;100.00;97040.81;5067114;28;20068;-55
2023/11/05 07:58:07;;;;;;;6.80;2.35;;;;;;;9.51;100.00;97032.19;5068446;28;20384;-54
2023/11/05 08:00:39;;;;;;;10.45;2.78;;;;;;;9.55;100.00;97040.50;5071594;28;20500;-53
2023/11/05 08:03:07;;;;;;;8.57;2.40;;;;;;;9.56;100.00;97039.53;5072001;28;20049;-54
2023/11/05 08:05:35;;;;;;;10.60;2.40;;;;;;;9.56;100.00;97042.94;5072292;28;20055;-54
2023/11/05 08:08:07;;;;;;;10.43;2.20;;;;;;;9.57;100.00;97046.38;5072768;28;20052;-56
2023/11/05 08:10:37;;;;;;;6.10;2.58;;;;;;;9.57;100.00;97056.84;5071142;28;20067;-53
2023/11/05 08:13:05;;;;;;;6.70;2.50;;;;;;;9.59;100.00;97057.50;5071972;28;20040;-54
2023/11/05 08:15:33;;;;;;;9.02;2.70;;;;;;;9.68;100.00;97071.31;5072364;28;20042;-54
2023/11/05 08:18:01;;;;;;;8.50;2.70;;;;;;;9.67;100.00;97070.50;5071091;28;20067;-53
2023/11/05 08:20:29;;;;;;;10.18;2.55;;;;;;;9.66;100.00;97074.13;5072039;28;20040;-53
2023/11/05 08:22:57;;;;;;;8.82;2.83;;;;;;;9.68;100.00;97081.78;5071934;28;20036;-53
2023/11/05 08:25:26;;;;;;;9.70;2.78;;;;;;;9.70;100.00;97079.81;5069158;28;20738;-55
2023/11/05 08:27:55;;;;;;;9.40;2.88;;;;;;;9.71;100.00;97082.25;5071650;28;20048;-54
2023/11/05 08:30:24;;;;;;;7.00;2.67;;;;;;;9.73;100.00;97080.22;5070472;28;20807;-54
2023/11/05 08:32:53;;;;;;;9.18;2.30;;;;;;;9.78;100.00;97084.94;5071875;28;20048;-53
2023/11/05 08:35:21;;;;;;;9.48;2.45;;;;;;;9.80;100.00;97090.81;5071344;28;20051;-52
2023/11/05 08:37:50;;;;;;;7.85;2.67;;;;;;;9.79;100.00;97092.63;5070575;28;20052;-53
2023/11/05 08:40:20;;;;;;;12.27;2.75;;;;;;;9.82;100.00;97096.69;5069968;28;20048;-54
2023/11/05 08:42:49;;;;;;;10.57;3.28;;;;;;;9.86;100.00;97102.34;5071708;28;20044;-54
2023/11/05 08:45:18;;;;;;;9.73;2.92;;;;;;;9.86;100.00;97116.31;5071529;28;20388;-53
2023/11/05 08:47:47;;;;;;;8.18;2.53;;;;;;;9.91;100.00;97110.50;5071808;28;20041;-53
2023/11/05 08:50:19;;;;;;;11.48;2.95;;;;;;;9.95;100.00;97128.31;5070981;28;20044;-54
2023/11/05 08:52:47;;;;;;;9.27;2.80;;;;;;;9.98;100.00;97122.69;5072137;28;20049;-52
2023/11/05 08:55:15;;;;;;;10.32;2.65;;;;;;;10.02;100.00;97127.56;5068300;28;20056;-51
2023/11/05 08:57:43;;;;;;;9.32;2.50;;;;;;;10.03;100.00;97130.00;5071632;28;20044;-53
2023/11/05 09:00:12;;;;;;;9.73;2.65;;;;;;;10.04;100.00;97142.13;5069869;28;20148;-54
2023/11/05 09:02:42;;;;;;;10.23;2.90;;;;;;;10.08;100.00;97150.47;5071402;28;20048;-53
2023/11/05 09:05:10;;;;;;;7.43;2.38;;;;;;;10.11;100.00;97152.69;5072445;28;20086;-53
2023/11/05 09:07:38;;;;;;;10.25;2.88;;;;;;;10.10;100.00;97157.16;5071625;28;20052;-53
2023/11/05 09:10:09;;;;;;;11.18;2.88;;;;;;;10.13;100.00;97156.75;5068897;28;20048;-53
2023/11/05 09:12:38;;;;;;;7.53;2.92;;;;;;;10.18;100.00;97160.66;5071394;28;20564;-53
2023/11/05 09:15:08;;;;;;;12.82;3.20;;;;;;;10.21;100.00;97158.47;5071904;28;20438;-55
2023/11/05 09:17:36;;;;;;;10.32;2.92;;;;;;;10.27;100.00;97175.28;5071401;28;20462;-55
2023/11/05 09:20:09;;;;;;;10.18;2.53;;;;;;;10.29;100.00;97171.47;5070970;28;20491;-53
2023/11/05 09:22:38;;;;;;;10.88;3.08;;;;;;;10.37;100.00;97177.63;5071261;28;20507;-54
2023/11/05 09:25:08;;;;;;;10.13;3.20;;;;;;;10.39;100.00;97184.31;5067575;28;20048;-53
2023/11/05 09:27:36;;;;;;;10.50;2.70;;;;;;;10.45;100.00;97185.38;5074160;28;20086;-51
2023/11/05 09:30:10;;;;;;;9.60;3.22;;;;;;;10.42;100.00;97194.44;5071114;28;20052;-52
2023/11/05 09:32:38;;;;;;;17.55;4.00;;;;;;;10.45;100.00;97185.38;5071598;28;20388;-53
2023/11/05 09:35:12;;;;;;;14.02;3.10;;;;;;;10.48;100.00;97191.06;5073792;28;20072;-51
2023/11/05 09:37:41;;;;;;;11.50;3.72;;;;;;;10.49;100.00;97199.75;5071521;28;20056;-54
2023/11/05 09:40:11;;;;;;;11.10;3.78;;;;;;;10.48;100.00;97208.63;5068629;28;20507;-53
2023/11/05 09:42:45;;;;;;;9.60;2.95;;;;;;;10.52;100.00;97209.88;5069377;28;20110;-55
2023/11/05 09:45:14;;;;;;;13.32;3.63;;;;;;;10.54;100.00;97213.16;5070071;28;20119;-55
2023/11/05 09:47:43;;;;;;;9.35;3.30;;;;;;;10.55;100.00;97225.28;5070717;28;20102;-54
2023/11/05 09:50:13;;;;;;;10.48;3.13;;;;;;;10.50;100.00;97227.66;5071996;28;20151;-56
2023/11/05 09:52:42;;;;;;;10.20;3.25;;;;;;;10.52;100.00;97230.91;5073669;28;20088;-55
2023/11/05 09:55:10;;;;;;;9.38;3.33;;;;;;;10.51;100.00;97236.34;5068396;28;20048;-55
2023/11/05 09:57:39;;;;;;;11.40;4.20;;;;;;;10.52;100.00;97232.72;5071176;28;20056;-54
2023/11/05 10:00:09;;;;;;;10.68;3.75;;;;;;;10.56;100.00;97240.03;5069914;28;20063;-54
2023/11/05 10:02:55;;;;;;;12.85;4.00;;;;;;;10.60;100.00;97249.16;5069775;28;20040;-54
2023/11/05 10:05:26;;;;;;;10.95;3.50;;;;;;;10.63;100.00;97251.44;5070043;28;20044;-55
2023/11/05 10:07:55;;;;;;;10.80;4.03;;;;;;;10.62;100.00;97255.06;5070617;28;20049;-53
2023/11/05 10:10:26;;;;;;;9.52;3.63;;;;;;;10.67;100.00;97261.56;5068238;28;20053;-55
2023/11/05 10:12:54;;;;;;;10.07;3.47;;;;;;;10.67;100.00;97258.94;5068972;28;20127;-53
2023/11/05 10:15:24;;;;;;;10.05;3.80;;;;;;;10.72;100.00;97269.72;5069868;28;20636;-54
2023/11/05 10:17:53;;;;;;;13.18;3.58;;;;;;;10.72;100.00;97267.88;5069962;28;20512;-55
2023/11/05 10:20:22;;;;;;;12.82;3.70;;;;;;;10.72;100.00;97274.97;5069487;28;20059;-53
2023/11/05 10:23:02;;;;;;;11.00;3.70;;;;;;;10.70;100.00;97282.22;5069476;28;20044;-54
2023/11/05 10:25:31;;;;;;;11.35;3.75;;;;;;;10.69;100.00;97286.66;5068418;28;20385;-54
2023/11/05 10:27:59;;;;;;;15.20;3.75;;;;;;;10.68;100.00;97290.28;5070409;28;20044;-53
2023/11/05 10:30:31;;;;;;;10.05;4.18;;;;;;;10.70;100.00;97295.34;5072830;28;20492;-56
2023/11/05 10:32:59;;;;;;;10.00;4.00;;;;;;;10.68;100.00;97300.00;5072347;28;20453;-55
2023/11/05 10:35:27;;;;;;;12.57;4.57;;;;;;;10.63;100.00;97298.75;5069153;28;20641;-53
2023/11/05 10:37:57;;;;;;;9.35;4.20;;;;;;;10.57;100.00;97299.47;5069737;28;20453;-56
2023/11/05 10:40:26;;;;;;;12.77;4.65;;;;;;;10.62;100.00;97301.53;5069350;28;20045;-54
2023/11/05 10:42:55;;;;;;;8.93;4.15;;;;;;;10.60;100.00;97306.97;5069595;28;20056;-56
2023/11/05 10:45:27;;;;;;;11.75;4.63;;;;;;;10.55;100.00;97316.41;5072497;28;20179;-57
2023/11/05 10:47:55;;;;;;;10.35;4.20;;;;;;;10.45;100.00;97311.47;5071173;28;20071;-54
2023/11/05 10:50:25;;;;;;;11.95;4.50;;;;;;;10.46;100.00;97318.34;5071267;28;20080;-55
2023/11/05 10:52:57;;;;;;;9.57;4.32;;;;;;;10.42;100.00;97324.97;5070164;28;20127;-54
2023/11/05 10:55:34;;;;;;;9.63;4.22;;;;;;;10.43;100.00;97323.97;5067780;28;20382;-57
2023/11/05 10:58:03;;;;;;;9.55;3.97;;;;;;;10.44;100.00;97326.44;5069942;28;20076;-54
2023/11/05 11:00:57;;;;;;;11.98;4.50;;;;;;;10.44;100.00;97338.72;5069932;28;20048;-54
2023/11/05 11:03:26;;;;;;;10.20;4.20;;;;;;;10.38;100.00;97342.09;5068605;28;20698;-56
2023/11/05 11:06:04;;;;;;;8.45;4.00;;;;;;;10.41;100.00;97349.63;5071715;28;20506;-55
2023/11/05 11:08:35;;;;;;;8.88;4.10;;;;;;;10.39;100.00;97354.22;5068846;28;20123;-54
2023/11/05 11:11:11;;;;;;;8.95;3.80;;;;;;;10.36;100.00;97365.94;5068306;28;20048;-55
2023/11/05 11:13:48;;;;;;;11.60;3.95;;;;;;;10.37;100.00;97382.50;5069052;28;20514;-53
2023/11/05 11:16:31;;;;;;;9.25;4.38;;;;;;;10.38;100.00;97373.63;5071326;28;20403;-56
2023/11/05 11:19:08;;;;;;;10.32;4.43;;;;;;;10.37;100.00;97387.75;5070690;28;20109;-55
2023/11/05 11:21:43;;;;;;;9.52;4.30;;;;;;;10.39;100.00;97391.00;5069804;28;20067;-53
2023/11/05 11:24:33;;;;;;;8.95;4.22;;;;;;;10.39;100.00;97391.00;5066998;28;20041;-53
2023/11/05 11:27:04;;;;;;;9.65;4.05;;;;;;;10.42;100.00;97391.44;5068889;28;20080;-54
2023/11/05 11:29:35;;;;;;;9.85;4.40;;;;;;;10.46;100.00;97412.94;5070125;28;20464;-54
2023/11/05 11:32:06;;;;;;;8.25;4.05;;;;;;;10.39;100.00;97417.25;5071458;28;20499;-54
2023/11/05 11:34:35;;;;;;;9.93;4.00;;;;;;;10.41;100.00;97418.72;5071623;28;20399;-54
2023/11/05 11:37:04;;;;;;;10.95;3.58;;;;;;;10.43;100.00;97426.41;5068594;28;20048;-55
2023/11/05 11:39:35;;;;;;;8.73;3.70;;;;;;;10.41;100.00;97431.03;5068360;28;20050;-56